createdAt,value
2023-02-11T20:39:17.517Z,57.10
2023-02-11T20:40:17.461Z,64.90
2023-02-11T20:41:17.425Z,70.40
2023-02-11T20:42:17.415Z,70.80
2023-02-11T20:43:17.292Z,72.40
2023-02-11T20:44:17.262Z,70.20
2023-02-11T20:45:17.253Z,73.80
2023-02-11T20:46:17.309Z,70.50
2023-02-11T20:47:17.196Z,72.00
2023-02-11T20:48:17.234Z,70.00
2023-02-11T20:49:17.183Z,72.30
2023-02-11T20:50:17.230Z,70.00
2023-02-11T20:51:17.230Z,66.20
2023-02-11T20:52:17.173Z,67.90
2023-02-11T20:53:17.202Z,64.50
2023-02-11T20:54:25.961Z,68.70
2023-02-11T20:55:17.152Z,66.10
2023-02-11T20:56:17.142Z,59.30
2023-02-11T20:57:17.119Z,63.90
2023-02-11T20:58:17.075Z,65.50
2023-02-11T20:59:17.148Z,59.90
2023-02-11T21:00:17.081Z,65.70
2023-02-11T21:01:17.128Z,65.10
2023-02-11T21:02:17.056Z,63.40
2023-02-11T21:03:17.104Z,62.70
2023-02-11T21:04:17.055Z,66.20
2023-02-11T21:05:17.023Z,67.30
2023-02-11T21:06:17.016Z,64.30
2023-02-11T21:07:17.005Z,63.50
2023-02-11T21:08:16.956Z,68.10
2023-02-11T21:09:16.957Z,65.30
2023-02-11T21:10:17.007Z,61.70
2023-02-11T21:11:17.012Z,65.30
2023-02-11T21:12:16.913Z,65.40
2023-02-11T21:13:16.898Z,66.00
2023-02-11T21:14:16.891Z,64.90
2023-02-11T21:15:16.899Z,64.60
2023-02-11T21:16:16.890Z,65.20
2023-02-11T21:17:16.857Z,59.20
2023-02-11T21:18:16.863Z,66.10
2023-02-11T21:19:16.827Z,70.10
2023-02-11T21:20:16.808Z,67.00
2023-02-11T21:21:16.802Z,68.90
2023-02-11T21:22:16.808Z,67.40
2023-02-11T21:23:16.752Z,66.00
2023-02-11T21:24:16.803Z,65.70
2023-02-11T21:25:16.787Z,66.80
2023-02-11T21:26:16.826Z,62.60
2023-02-11T21:27:16.824Z,68.40
2023-02-11T21:28:16.823Z,66.00
2023-02-11T21:29:16.694Z,67.00
2023-02-11T21:30:16.692Z,65.80
2023-02-11T21:31:16.742Z,69.90
2023-02-11T21:32:16.657Z,64.50
2023-02-11T21:33:16.659Z,62.50
2023-02-11T21:34:16.646Z,69.80
2023-02-11T21:35:16.612Z,67.10
2023-02-11T21:36:16.605Z,69.50
2023-02-11T21:37:16.610Z,66.80
2023-02-11T21:38:16.680Z,60.70
2023-02-11T21:39:16.577Z,63.90
2023-02-11T21:40:16.539Z,67.80
2023-02-11T21:41:16.530Z,61.20
2023-02-11T21:42:16.563Z,58.40
2023-02-11T21:43:16.574Z,62.80
2023-02-11T21:44:16.509Z,51.90
2023-02-11T21:45:16.550Z,63.80
2023-02-11T21:46:16.587Z,64.20
2023-02-11T21:47:16.475Z,63.10
2023-02-11T21:48:16.450Z,62.60
2023-02-11T21:49:16.485Z,67.30
2023-02-11T21:50:16.475Z,62.50
2023-02-11T21:51:16.469Z,63.20
2023-02-11T21:52:16.399Z,65.60
2023-02-11T21:53:16.417Z,63.40
2023-02-11T21:54:16.380Z,63.90
2023-02-11T21:55:16.367Z,62.80
2023-02-11T21:56:16.422Z,65.40
2023-02-11T21:57:16.354Z,66.20
2023-02-11T21:58:16.363Z,62.20
2023-02-11T21:59:16.353Z,63.00
2023-02-11T22:00:16.284Z,62.10
2023-02-11T22:01:16.327Z,68.10
2023-02-11T22:02:16.294Z,67.20
2023-02-11T22:03:16.263Z,69.50
2023-02-11T22:04:16.289Z,68.60
2023-02-11T22:05:16.250Z,65.70
2023-02-11T22:06:16.236Z,67.80
2023-02-11T22:07:16.315Z,67.90
2023-02-11T22:08:18.565Z,68.50
2023-02-11T22:09:16.195Z,66.90
2023-02-11T22:10:16.192Z,65.50
2023-02-11T22:11:16.158Z,64.30
2023-02-11T22:12:16.158Z,60.50
2023-02-11T22:13:16.178Z,62.60
2023-02-11T22:14:16.160Z,63.00
2023-02-11T22:15:16.134Z,60.80
2023-02-11T22:16:16.266Z,59.10
2023-02-11T22:17:16.194Z,58.00
2023-02-11T22:18:16.090Z,60.20
2023-02-11T22:19:16.052Z,64.50
2023-02-11T22:20:16.105Z,58.50
2023-02-11T22:21:16.038Z,59.70
2023-02-11T22:22:16.039Z,62.80
2023-02-11T22:23:16.067Z,63.40
2023-02-11T22:24:16.077Z,61.10
2023-02-11T22:25:16.014Z,58.90
2023-02-11T22:26:16.013Z,61.70
2023-02-11T22:27:17.394Z,62.40
2023-02-11T22:28:16.008Z,61.00
2023-02-11T22:29:15.927Z,61.20
2023-02-11T22:30:15.933Z,58.00
2023-02-11T22:31:16.088Z,61.50
2023-02-11T22:32:15.944Z,57.80
2023-02-11T22:33:15.888Z,59.30
2023-02-11T22:34:15.869Z,60.50
2023-02-11T22:35:15.897Z,58.10
2023-02-11T22:36:24.370Z,60.30
2023-02-11T22:37:15.796Z,54.60
2023-02-11T22:38:15.778Z,58.80
2023-02-11T22:39:15.781Z,60.00
2023-02-11T22:40:15.806Z,58.40
2023-02-11T22:41:15.795Z,57.30
2023-02-11T22:42:15.731Z,56.70
2023-02-11T22:43:15.759Z,56.90
2023-02-11T22:44:15.731Z,57.60
2023-02-11T22:45:15.716Z,58.20
2023-02-11T22:46:15.756Z,50.50
2023-02-11T22:47:15.715Z,57.80
2023-02-11T22:48:15.686Z,56.60
2023-02-11T22:49:15.673Z,55.60
2023-02-11T22:50:15.621Z,58.50
2023-02-11T22:51:15.616Z,56.00
2023-02-11T22:52:15.603Z,53.50
2023-02-11T22:53:15.587Z,52.40
2023-02-11T22:54:15.616Z,56.50
2023-02-11T22:55:15.553Z,58.80
2023-02-11T22:56:15.995Z,57.50
2023-02-11T22:57:15.562Z,56.70
2023-02-11T22:58:15.545Z,53.60
2023-02-11T22:59:32.517Z,56.70
2023-02-11T23:00:32.488Z,55.10
2023-02-11T23:01:32.542Z,58.20
2023-02-11T23:02:32.562Z,56.90
2023-02-11T23:03:39.952Z,61.80
2023-02-11T23:04:36.896Z,58.10
2023-02-11T23:05:32.404Z,57.10
2023-02-11T23:06:32.411Z,55.70
2023-02-11T23:07:32.384Z,57.60
2023-02-11T23:08:32.397Z,55.90
2023-02-11T23:09:32.356Z,57.10
2023-02-11T23:10:32.437Z,54.60
2023-02-11T23:11:32.327Z,59.60
2023-02-11T23:12:32.332Z,56.30
2023-02-11T23:13:32.330Z,57.80
2023-02-11T23:14:32.312Z,54.80
2023-02-11T23:15:32.290Z,53.80
2023-02-11T23:16:32.403Z,56.90
2023-02-11T23:17:32.259Z,53.40
2023-02-11T23:18:32.259Z,52.30
2023-02-11T23:19:32.277Z,55.20
2023-02-11T23:20:32.231Z,50.90
2023-02-11T23:21:32.262Z,53.90
2023-02-11T23:22:32.198Z,48.90
2023-02-11T23:23:32.205Z,52.90
2023-02-11T23:24:32.195Z,50.30
2023-02-11T23:25:32.179Z,49.60
2023-02-11T23:26:32.188Z,48.60
2023-02-11T23:27:32.171Z,49.20
2023-02-11T23:28:32.168Z,47.90
2023-02-11T23:29:32.135Z,50.00
2023-02-11T23:30:32.124Z,53.30
2023-02-11T23:31:32.253Z,51.50
2023-02-11T23:32:32.500Z,49.60
2023-02-11T23:33:32.268Z,50.10
2023-02-11T23:34:32.042Z,48.70
2023-02-11T23:35:32.070Z,49.20
2023-02-11T23:36:32.037Z,51.20
2023-02-11T23:37:32.009Z,50.30
2023-02-11T23:38:32.026Z,53.80
2023-02-11T23:39:31.990Z,50.20
2023-02-11T23:40:31.991Z,51.30
2023-02-11T23:41:31.978Z,52.40
2023-02-11T23:42:31.954Z,50.20
2023-02-11T23:43:31.940Z,51.40
2023-02-11T23:44:31.934Z,49.00
2023-02-11T23:45:31.997Z,50.30
2023-02-11T23:46:31.904Z,49.30
2023-02-11T23:47:31.902Z,52.20
2023-02-11T23:48:31.927Z,51.00
2023-02-11T23:49:31.872Z,50.50
2023-02-11T23:50:31.888Z,50.00
2023-02-11T23:51:31.854Z,50.40
2023-02-11T23:52:31.833Z,48.70
2023-02-11T23:53:31.822Z,51.40
2023-02-11T23:54:36.937Z,50.50
2023-02-11T23:55:31.819Z,52.30
2023-02-11T23:56:31.813Z,51.20
2023-02-11T23:57:31.789Z,49.60
2023-02-11T23:58:31.879Z,46.40
2023-02-11T23:59:31.754Z,47.00
